PWSweather.com
Personal Weather Stations
Station Observations
KILMORRI1
Goose Lake, Morris, IL 60450

Goose LakeMorris, IL 60450

Lat: 41.34, Lon: -88.3

Elevation: 523

Station Type:

Latest ConditionsUpdated 4:20:04 PM CDT Thursday, Oct 18, 2018
Currently Today's Max Today's Min Today's Average
Temperature 59.9°F15.5°C 60.7°F15.9°C 28.1°F-2.2°C 40.8°F4.9°C
Dew Point 33.5°F0.8°C 35.6°F2.0°C 26.1°F-3.3°C 30.1°F-1.1°C
Winds 1.2 mph SSW1.9 kmh SSW 5.8 mph -9.3 kmh - - 1.6 mph 2.6 kmh
Wind Gusts 3.5 mph5.6 kmh 10.4 mph16.7 kmh - -
Humidity 37% 93% 31% 71%
Pressure 30.39 in1029.1 mb 30.55 in1034.5 mb 30.39 in1029.1 mb -
Hour Temp Dew Point Humidity Winds Wind Gusts Pressure Precip Precip Rate Daily Precip Total
04:20 PM 59.9°F15.5°C 33.5°F0.8°C 37% 1.2 mph SSW1.9 kmh SSW 3.5 mph5.6 kmh 30.39 in1029.1 mb - 0.00 in0.0 mm 0.00 in0.0 mm
04:10 PM 60.1°F15.6°C 32.3°F0.2°C 35% 3.5 mph SW5.6 kmh SW 4.6 mph7.4 kmh 30.39 in1029.1 mb - 0.00 in0.0 mm 0.00 in0.0 mm
04:00 PM 60.0°F15.6°C 29.2°F-1.6°C 31% 3.5 mph SSW5.6 kmh SSW 3.5 mph5.6 kmh 30.40 in1029.5 mb - 0.00 in0.0 mm 0.00 in0.0 mm
03:50 PM 60.7°F15.9°C 33.5°F0.8°C 36% 3.5 mph WSW5.6 kmh WSW 4.6 mph7.4 kmh 30.40 in1029.5 mb - 0.00 in0.0 mm 0.00 in0.0 mm
03:40 PM 60.0°F15.6°C 29.3°F-1.5°C 31% 1.2 mph WSW1.9 kmh WSW 3.5 mph5.6 kmh 30.40 in1029.5 mb - 0.00 in0.0 mm 0.00 in0.0 mm
03:30 PM 59.7°F15.4°C 32.0°F0.0°C 35% 2.3 mph SSW3.7 kmh SSW 3.5 mph5.6 kmh 30.40 in1029.5 mb - 0.00 in0.0 mm 0.00 in0.0 mm
03:20 PM 59.3°F15.2°C 28.6°F-1.9°C 31% 4.6 mph SW7.4 kmh SW 4.6 mph7.4 kmh 30.41 in1029.8 mb - 0.00 in0.0 mm 0.00 in0.0 mm
03:10 PM 60.1°F15.6°C 32.3°F0.2°C 35% 3.5 mph SW5.6 kmh SW 4.6 mph7.4 kmh 30.41 in1029.8 mb - 0.00 in0.0 mm 0.00 in0.0 mm
03:00 PM 59.2°F15.1°C 32.3°F0.2°C 36% 2.3 mph SSW3.7 kmh SSW 5.8 mph9.3 kmh 30.41 in1029.8 mb - 0.00 in0.0 mm 0.00 in0.0 mm
02:50 PM 59.5°F15.3°C 33.1°F0.6°C 37% 3.5 mph WSW5.6 kmh WSW 5.8 mph9.3 kmh 30.42 in1030.1 mb - 0.00 in0.0 mm 0.00 in0.0 mm
02:40 PM 59.2°F15.1°C 32.2°F0.1°C 36% 3.5 mph W5.6 kmh W 5.8 mph9.3 kmh 30.43 in1030.5 mb - 0.00 in0.0 mm 0.00 in0.0 mm
02:30 PM 59.5°F15.3°C 33.1°F0.6°C 37% 4.6 mph WSW7.4 kmh WSW 6.9 mph11.1 kmh 30.43 in1030.5 mb - 0.00 in0.0 mm 0.00 in0.0 mm
02:20 PM 58.8°F14.9°C 31.8°F-0.1°C 36% 2.3 mph WSW3.7 kmh WSW 3.5 mph5.6 kmh 30.44 in1030.8 mb - 0.00 in0.0 mm 0.00 in0.0 mm
02:10 PM 58.9°F14.9°C 34.0°F1.1°C 39% 2.3 mph SSW3.7 kmh SSW 3.5 mph5.6 kmh 30.45 in1031.2 mb - 0.00 in0.0 mm 0.00 in0.0 mm
02:00 PM 58.9°F14.9°C 31.3°F-0.4°C 35% 3.5 mph WSW5.6 kmh WSW 8.1 mph13.0 kmh 30.45 in1031.2 mb - 0.00 in0.0 mm 0.00 in0.0 mm
01:50 PM 58.2°F14.6°C 34.0°F1.1°C 40% 2.3 mph SSW3.7 kmh SSW 6.9 mph11.1 kmh 30.46 in1031.5 mb - 0.00 in0.0 mm 0.00 in0.0 mm
01:40 PM 57.5°F14.2°C 32.1°F0.1°C 38% 3.5 mph S5.6 kmh S 3.5 mph5.6 kmh 30.46 in1031.5 mb - 0.00 in0.0 mm 0.00 in0.0 mm
01:30 PM 57.4°F14.1°C 32.6°F0.3°C 39% 4.6 mph S7.4 kmh S 5.8 mph9.3 kmh 30.47 in1031.8 mb - 0.00 in0.0 mm 0.00 in0.0 mm
01:20 PM 57.0°F13.9°C 32.9°F0.5°C 40% 2.3 mph SW3.7 kmh SW 6.9 mph11.1 kmh 30.47 in1031.8 mb - 0.00 in0.0 mm 0.00 in0.0 mm
01:10 PM 56.7°F13.7°C 32.0°F0.0°C 39% 2.3 mph S3.7 kmh S 4.6 mph7.4 kmh 30.48 in1032.2 mb - 0.00 in0.0 mm 0.00 in0.0 mm
01:00 PM 57.0°F13.9°C 33.5°F0.8°C 41% 3.5 mph SW5.6 kmh SW 3.5 mph5.6 kmh 30.49 in1032.5 mb - 0.00 in0.0 mm 0.00 in0.0 mm
12:50 PM 56.4°F13.6°C 33.0°F0.6°C 41% 4.6 mph SW7.4 kmh SW 6.9 mph11.1 kmh 30.49 in1032.5 mb - 0.00 in0.0 mm 0.00 in0.0 mm
12:40 PM 55.5°F13.1°C 32.1°F0.1°C 41% 3.5 mph SW5.6 kmh SW 5.8 mph9.3 kmh 30.50 in1032.8 mb - 0.00 in0.0 mm 0.00 in0.0 mm
12:30 PM 55.6°F13.1°C 32.8°F0.4°C 42% 5.8 mph WSW9.3 kmh WSW 9.2 mph14.8 kmh 30.50 in1032.8 mb - 0.00 in0.0 mm 0.00 in0.0 mm
12:20 PM 55.2°F12.9°C 32.5°F0.3°C 42% 4.6 mph SSW7.4 kmh SSW 6.9 mph11.1 kmh 30.51 in1033.2 mb - 0.00 in0.0 mm 0.00 in0.0 mm
12:10 PM 54.3°F12.4°C 32.3°F0.2°C 43% 3.5 mph SSW5.6 kmh SSW 6.9 mph11.1 kmh 30.52 in1033.5 mb - 0.00 in0.0 mm 0.00 in0.0 mm
12:00 PM 54.0°F12.2°C 33.7°F0.9°C 46% 4.6 mph SSW7.4 kmh SSW 8.1 mph13.0 kmh 30.52 in1033.5 mb - 0.00 in0.0 mm 0.00 in0.0 mm
11:50 AM 53.8°F12.1°C 33.5°F0.8°C 46% 3.5 mph SW5.6 kmh SW 3.5 mph5.6 kmh 30.53 in1033.9 mb - 0.00 in0.0 mm 0.00 in0.0 mm
11:40 AM 53.2°F11.8°C 34.0°F1.1°C 48% 2.3 mph S3.7 kmh S 5.8 mph9.3 kmh 30.53 in1033.9 mb - 0.00 in0.0 mm 0.00 in0.0 mm
11:30 AM 52.8°F11.6°C 33.1°F0.6°C 47% 3.5 mph SW5.6 kmh SW 10.4 mph16.7 kmh 30.53 in1033.9 mb - 0.00 in0.0 mm 0.00 in0.0 mm
11:20 AM 51.9°F11.1°C 33.3°F0.7°C 49% 2.3 mph SW3.7 kmh SW 3.5 mph5.6 kmh 30.54 in1034.2 mb - 0.00 in0.0 mm 0.00 in0.0 mm
11:10 AM 51.7°F10.9°C 35.6°F2.0°C 54% 5.8 mph SW9.3 kmh SW 6.9 mph11.1 kmh 30.54 in1034.2 mb - 0.00 in0.0 mm 0.00 in0.0 mm
11:00 AM 51.1°F10.6°C 32.6°F0.3°C 49% 3.5 mph SW5.6 kmh SW 4.6 mph7.4 kmh 30.54 in1034.2 mb - 0.00 in0.0 mm 0.00 in0.0 mm
10:50 AM 49.7°F9.8°C 33.2°F0.7°C 53% 3.5 mph SW5.6 kmh SW 6.9 mph11.1 kmh 30.54 in1034.2 mb - 0.00 in0.0 mm 0.00 in0.0 mm
10:40 AM 49.0°F9.4°C 33.5°F0.8°C 55% 2.3 mph SW3.7 kmh SW 4.6 mph7.4 kmh 30.55 in1034.5 mb - 0.00 in0.0 mm 0.00 in0.0 mm
10:30 AM 48.1°F8.9°C 34.8°F1.6°C 60% 3.5 mph SW5.6 kmh SW 5.8 mph9.3 kmh 30.55 in1034.5 mb - 0.00 in0.0 mm 0.00 in0.0 mm
10:20 AM 46.7°F8.2°C 33.9°F1.1°C 61% 3.5 mph SW5.6 kmh SW 5.8 mph9.3 kmh 30.55 in1034.5 mb - 0.00 in0.0 mm 0.00 in0.0 mm
10:10 AM 46.2°F7.9°C 34.3°F1.3°C 63% 3.5 mph SW5.6 kmh SW 4.6 mph7.4 kmh 30.55 in1034.5 mb - 0.00 in0.0 mm 0.00 in0.0 mm
10:00 AM 45.0°F7.2°C 33.2°F0.7°C 63% 3.5 mph SW5.6 kmh SW 4.6 mph7.4 kmh 30.55 in1034.5 mb - 0.00 in0.0 mm 0.00 in0.0 mm
09:50 AM 44.2°F6.8°C 33.6°F0.9°C 66% 2.3 mph SSW3.7 kmh SSW 3.5 mph5.6 kmh 30.55 in1034.5 mb - 0.00 in0.0 mm 0.00 in0.0 mm
09:40 AM 43.1°F6.2°C 33.2°F0.7°C 68% Calm Calm 1.2 mph1.9 kmh 30.55 in1034.5 mb - 0.00 in0.0 mm 0.00 in0.0 mm
09:30 AM 41.4°F5.2°C 34.1°F1.2°C 75% Calm Calm 1.2 mph1.9 kmh 30.55 in1034.5 mb - 0.00 in0.0 mm 0.00 in0.0 mm
09:20 AM 39.9°F4.4°C 34.0°F1.1°C 79% Calm Calm -- 30.55 in1034.5 mb - 0.00 in0.0 mm 0.00 in0.0 mm
09:10 AM 39.0°F3.9°C 33.0°F0.6°C 79% Calm Calm -- 30.55 in1034.5 mb - 0.00 in0.0 mm 0.00 in0.0 mm
09:00 AM 37.6°F3.1°C 32.9°F0.5°C 83% 1.2 mph WNW1.9 kmh WNW 2.3 mph3.7 kmh 30.54 in1034.2 mb - 0.00 in0.0 mm 0.00 in0.0 mm
08:50 AM 36.2°F2.3°C 33.0°F0.6°C 88% 1.2 mph WNW1.9 kmh WNW 1.2 mph1.9 kmh 30.54 in1034.2 mb - 0.00 in0.0 mm 0.00 in0.0 mm
08:40 AM 35.0°F1.7°C 32.9°F0.5°C 92% Calm Calm -- 30.54 in1034.2 mb - 0.00 in0.0 mm 0.00 in0.0 mm
08:30 AM 33.6°F0.9°C 31.8°F-0.1°C 93% 1.2 mph WNW1.9 kmh WNW 1.2 mph1.9 kmh 30.54 in1034.2 mb - 0.00 in0.0 mm 0.00 in0.0 mm
08:20 AM 32.5°F0.3°C 30.7°F-0.7°C 93% 1.2 mph WNW1.9 kmh WNW 2.3 mph3.7 kmh 30.54 in1034.2 mb - 0.00 in0.0 mm 0.00 in0.0 mm
08:10 AM 30.9°F-0.6°C 28.8°F-1.8°C 92% Calm Calm 1.2 mph1.9 kmh 30.54 in1034.2 mb - 0.00 in0.0 mm 0.00 in0.0 mm
08:00 AM 29.9°F-1.2°C 27.8°F-2.3°C 92% Calm Calm -- 30.54 in1034.2 mb - 0.00 in0.0 mm 0.00 in0.0 mm
07:50 AM 29.1°F-1.6°C 27.1°F-2.7°C 92% Calm Calm -- 30.53 in1033.9 mb - 0.00 in0.0 mm 0.00 in0.0 mm
07:40 AM 28.5°F-1.9°C 26.5°F-3.1°C 92% 1.2 mph NW1.9 kmh NW 1.2 mph1.9 kmh 30.53 in1033.9 mb - 0.00 in0.0 mm 0.00 in0.0 mm
07:30 AM 28.6°F-1.9°C 26.6°F-3.0°C 92% Calm Calm -- 30.53 in1033.9 mb - 0.00 in0.0 mm 0.00 in0.0 mm
07:20 AM 28.1°F-2.2°C 26.1°F-3.3°C 92% Calm Calm -- 30.54 in1034.2 mb - 0.00 in0.0 mm 0.00 in0.0 mm
07:10 AM 28.4°F-2.0°C 26.4°F-3.1°C 92% Calm Calm -- 30.53 in1033.9 mb - 0.00 in0.0 mm 0.00 in0.0 mm
07:00 AM 28.4°F-2.0°C 26.4°F-3.1°C 92% 1.2 mph NW1.9 kmh NW 1.2 mph1.9 kmh 30.53 in1033.9 mb - 0.00 in0.0 mm 0.00 in0.0 mm
06:50 AM 28.3°F-2.1°C 26.3°F-3.2°C 92% Calm Calm 1.2 mph1.9 kmh 30.53 in1033.9 mb - 0.00 in0.0 mm 0.00 in0.0 mm
06:40 AM 28.4°F-2.0°C 26.4°F-3.1°C 92% Calm Calm -- 30.53 in1033.9 mb - 0.00 in0.0 mm 0.00 in0.0 mm
06:30 AM 28.8°F-1.8°C 26.8°F-2.9°C 92% Calm Calm 1.2 mph1.9 kmh 30.53 in1033.9 mb - 0.00 in0.0 mm 0.00 in0.0 mm
06:20 AM 28.9°F-1.7°C 26.8°F-2.9°C 92% 1.2 mph NW1.9 kmh NW 1.2 mph1.9 kmh 30.53 in1033.9 mb - 0.00 in0.0 mm 0.00 in0.0 mm
06:10 AM 28.9°F-1.7°C 26.9°F-2.8°C 92% 1.2 mph NW1.9 kmh NW 1.2 mph1.9 kmh 30.52 in1033.5 mb - 0.00 in0.0 mm 0.00 in0.0 mm
06:00 AM 28.4°F-2.0°C 26.4°F-3.1°C 92% 1.2 mph NW1.9 kmh NW 1.2 mph1.9 kmh 30.52 in1033.5 mb - 0.00 in0.0 mm 0.00 in0.0 mm
05:50 AM 28.6°F-1.9°C 26.6°F-3.0°C 92% 1.2 mph NW1.9 kmh NW 1.2 mph1.9 kmh 30.52 in1033.5 mb - 0.00 in0.0 mm 0.00 in0.0 mm
05:40 AM 28.8°F-1.8°C 26.8°F-2.9°C 92% Calm Calm 1.2 mph1.9 kmh 30.52 in1033.5 mb - 0.00 in0.0 mm 0.00 in0.0 mm
05:30 AM 28.4°F-2.0°C 26.1°F-3.3°C 91% 1.2 mph NW1.9 kmh NW 2.3 mph3.7 kmh 30.51 in1033.2 mb - 0.00 in0.0 mm 0.00 in0.0 mm
05:20 AM 28.7°F-1.8°C 26.7°F-2.9°C 92% Calm Calm 1.2 mph1.9 kmh 30.51 in1033.2 mb - 0.00 in0.0 mm 0.00 in0.0 mm
05:10 AM 28.7°F-1.8°C 26.6°F-3.0°C 92% Calm Calm 1.2 mph1.9 kmh 30.51 in1033.2 mb - 0.00 in0.0 mm 0.00 in0.0 mm
05:00 AM 28.7°F-1.8°C 26.7°F-2.9°C 92% Calm Calm -- 30.50 in1032.8 mb - 0.00 in0.0 mm 0.00 in0.0 mm
04:50 AM 28.8°F-1.8°C 26.8°F-2.9°C 92% Calm Calm 1.2 mph1.9 kmh 30.50 in1032.8 mb - 0.00 in0.0 mm 0.00 in0.0 mm
04:40 AM 28.9°F-1.7°C 26.9°F-2.8°C 92% Calm Calm 1.2 mph1.9 kmh 30.50 in1032.8 mb - 0.00 in0.0 mm 0.00 in0.0 mm
04:30 AM 28.8°F-1.8°C 26.8°F-2.9°C 92% Calm Calm -- 30.50 in1032.8 mb - 0.00 in0.0 mm 0.00 in0.0 mm
04:20 AM 28.8°F-1.8°C 26.8°F-2.9°C 92% Calm Calm 1.2 mph1.9 kmh 30.50 in1032.8 mb - 0.00 in0.0 mm 0.00 in0.0 mm
04:10 AM 28.6°F-1.9°C 26.6°F-3.0°C 92% Calm Calm -- 30.50 in1032.8 mb - 0.00 in0.0 mm 0.00 in0.0 mm
04:00 AM 28.8°F-1.8°C 26.5°F-3.1°C 91% Calm Calm -- 30.50 in1032.8 mb - 0.00 in0.0 mm 0.00 in0.0 mm
03:50 AM 29.2°F-1.6°C 27.2°F-2.7°C 92% Calm Calm -- 30.50 in1032.8 mb - 0.00 in0.0 mm 0.00 in0.0 mm
03:40 AM 29.1°F-1.6°C 26.8°F-2.9°C 91% Calm Calm -- 30.50 in1032.8 mb - 0.00 in0.0 mm 0.00 in0.0 mm
03:30 AM 29.2°F-1.6°C 26.9°F-2.8°C 91% Calm Calm -- 30.50 in1032.8 mb - 0.00 in0.0 mm 0.00 in0.0 mm
03:20 AM 29.6°F-1.3°C 27.3°F-2.6°C 91% Calm Calm -- 30.50 in1032.8 mb - 0.00 in0.0 mm 0.00 in0.0 mm
03:10 AM 29.9°F-1.2°C 27.9°F-2.3°C 92% 1.2 mph NW1.9 kmh NW 1.2 mph1.9 kmh 30.50 in1032.8 mb - 0.00 in0.0 mm 0.00 in0.0 mm
03:00 AM 29.7°F-1.3°C 27.4°F-2.6°C 91% Calm Calm -- 30.50 in1032.8 mb - 0.00 in0.0 mm 0.00 in0.0 mm
02:50 AM 29.9°F-1.2°C 27.6°F-2.4°C 91% Calm Calm -- 30.50 in1032.8 mb - 0.00 in0.0 mm 0.00 in0.0 mm
02:40 AM 30.3°F-0.9°C 28.0°F-2.2°C 91% Calm Calm 1.2 mph1.9 kmh 30.50 in1032.8 mb - 0.00 in0.0 mm 0.00 in0.0 mm
02:30 AM 30.8°F-0.7°C 28.5°F-1.9°C 91% Calm Calm -- 30.50 in1032.8 mb - 0.00 in0.0 mm 0.00 in0.0 mm
02:20 AM 30.9°F-0.6°C 28.6°F-1.9°C 91% Calm Calm 1.2 mph1.9 kmh 30.50 in1032.8 mb - 0.00 in0.0 mm 0.00 in0.0 mm
02:10 AM 31.2°F-0.4°C 28.8°F-1.8°C 91% 1.2 mph NW1.9 kmh NW 2.3 mph3.7 kmh 30.50 in1032.8 mb - 0.00 in0.0 mm 0.00 in0.0 mm
02:00 AM 30.9°F-0.6°C 28.6°F-1.9°C 91% 1.2 mph NW1.9 kmh NW 1.2 mph1.9 kmh 30.49 in1032.5 mb - 0.00 in0.0 mm 0.00 in0.0 mm
01:50 AM 30.6°F-0.8°C 28.3°F-2.1°C 91% Calm Calm -- 30.49 in1032.5 mb - 0.00 in0.0 mm 0.00 in0.0 mm
01:40 AM 30.9°F-0.6°C 28.3°F-2.1°C 90% Calm Calm 1.2 mph1.9 kmh 30.48 in1032.2 mb - 0.00 in0.0 mm 0.00 in0.0 mm
01:30 AM 31.0°F-0.6°C 28.4°F-2.0°C 90% 1.2 mph NW1.9 kmh NW 1.2 mph1.9 kmh 30.48 in1032.2 mb - 0.00 in0.0 mm 0.00 in0.0 mm
01:20 AM 31.3°F-0.4°C 28.7°F-1.8°C 90% Calm Calm 1.2 mph1.9 kmh 30.48 in1032.2 mb - 0.00 in0.0 mm 0.00 in0.0 mm
01:10 AM 31.4°F-0.3°C 28.8°F-1.8°C 90% 1.2 mph NW1.9 kmh NW 2.3 mph3.7 kmh 30.48 in1032.2 mb - 0.00 in0.0 mm 0.00 in0.0 mm
01:00 AM 31.6°F-0.2°C 29.0°F-1.7°C 90% Calm Calm 1.2 mph1.9 kmh 30.48 in1032.2 mb - 0.00 in0.0 mm 0.00 in0.0 mm
12:50 AM 31.6°F-0.2°C 29.0°F-1.7°C 90% Calm Calm -- 30.48 in1032.2 mb - 0.00 in0.0 mm 0.00 in0.0 mm
12:40 AM 31.9°F-0.1°C 29.3°F-1.5°C 90% 1.2 mph NW1.9 kmh NW 1.2 mph1.9 kmh 30.47 in1031.8 mb - 0.00 in0.0 mm 0.00 in0.0 mm
12:30 AM 31.9°F-0.1°C 29.3°F-1.5°C 90% Calm Calm 1.2 mph1.9 kmh 30.47 in1031.8 mb - 0.00 in0.0 mm 0.00 in0.0 mm
12:20 AM 31.7°F-0.2°C 28.8°F-1.8°C 89% Calm Calm -- 30.47 in1031.8 mb - 0.00 in0.0 mm 0.00 in0.0 mm
12:10 AM 32.0°F0.0°C 29.2°F-1.6°C 89% Calm Calm -- 30.47 in1031.8 mb - 0.00 in0.0 mm 0.00 in0.0 mm
12:00 AM 32.5°F0.3°C 29.6°F-1.3°C 89% Calm Calm -- 30.47 in1031.8 mb - 0.00 in0.0 mm 0.00 in0.0 mm